Time;durP1;ratioP1;P1;durP2;ratioP2;P2;SDS_P1;SDS_P2;PMS_P1;PMS_P2;Temp;Humidity;BMP_temperature;BMP_pressure;BME280_temperature;BME280_humidity;BME280_pressure;Samples;Min_cycle;Max_cycle;Signal;HPM_P1;HPM_P2
2023/04/19 00:00:18;;;;;;;;;46.25;39.50;;;;;16.55;83.66;101530.50;5078207;28;45342;-84
2023/04/19 00:02:44;;;;;;;;;47.50;40.00;;;;;16.63;83.81;101543.75;5079305;27;45467;-84
2023/04/19 00:05:10;;;;;;;;;45.50;37.75;;;;;16.69;84.30;101555.56;5079061;27;46272;-84
2023/04/19 00:07:36;;;;;;;;;47.75;39.00;;;;;16.62;84.59;101547.47;5079451;28;45362;-83
2023/04/19 00:10:01;;;;;;;;;46.50;39.00;;;;;16.53;85.04;101533.38;5079346;27;45299;-83
2023/04/19 00:12:26;;;;;;;;;48.25;40.50;;;;;16.63;85.19;101546.44;5079188;28;45421;-83
2023/04/19 00:14:52;;;;;;;;;48.25;40.25;;;;;16.76;84.82;101549.22;5079179;27;45458;-84
2023/04/19 00:17:18;;;;;;;;;43.00;36.75;;;;;16.79;84.24;101553.38;5079001;27;45653;-83
2023/04/19 00:19:43;;;;;;;;;44.75;36.75;;;;;16.66;84.31;101536.16;5079315;27;45491;-84
2023/04/19 00:22:09;;;;;;;;;42.00;36.25;;;;;16.74;84.74;101537.88;5078994;27;45511;-83
2023/04/19 00:24:39;;;;;;;;;44.00;37.50;;;;;16.28;86.67;101549.88;5077623;28;47287;-83
2023/04/19 00:27:05;;;;;;;;;42.25;36.25;;;;;16.59;84.82;101523.72;5077551;28;45664;-83
2023/04/19 00:29:30;;;;;;;;;40.25;35.00;;;;;16.86;84.45;101553.44;5070680;28;46036;-83
2023/04/19 00:31:56;;;;;;;;;37.50;34.75;;;;;16.61;84.27;101513.63;5079133;28;45348;-83
2023/04/19 00:34:21;;;;;;;;;43.67;35.67;;;;;16.83;84.25;101551.13;5082581;28;46144;-83
2023/04/19 00:36:46;;;;;;;;;40.00;34.50;;;;;16.86;84.12;101565.00;5086678;28;45287;-83
2023/04/19 00:39:12;;;;;;;;;40.50;35.00;;;;;16.75;84.23;101538.69;5083875;28;45258;-83
2023/04/19 00:41:37;;;;;;;;;37.67;31.00;;;;;16.84;83.82;101555.47;5082451;28;45343;-83
2023/04/19 00:44:03;;;;;;;;;44.33;37.33;;;;;16.91;83.33;101564.38;5082271;28;45451;-83
2023/04/19 00:46:28;;;;;;;;;38.75;33.00;;;;;16.77;83.45;101526.72;5082354;28;45242;-83
2023/04/19 00:48:54;;;;;;;;;37.50;34.00;;;;;16.70;83.46;101533.91;5082321;28;45324;-83
2023/04/19 00:51:20;;;;;;;;;39.00;33.67;;;;;16.78;83.50;101528.41;5082036;28;45326;-83
2023/04/19 00:53:45;;;;;;;;;35.67;33.33;;;;;16.66;83.72;101551.44;5082001;28;45473;-83
2023/04/19 00:56:12;;;;;;;;;37.00;33.00;;;;;16.44;85.19;101551.47;5082089;28;45212;-83
2023/04/19 00:58:38;;;;;;;;;37.67;33.67;;;;;16.14;85.96;101530.16;5082398;28;45217;-83
2023/04/19 01:01:05;;;;;;;;;39.50;34.50;;;;;16.18;86.61;101536.81;5063621;28;46321;-83
2023/04/19 01:03:30;;;;;;;;;38.33;33.67;;;;;16.10;86.90;101535.06;5081726;28;46026;-83
2023/04/19 01:05:56;;;;;;;;;43.00;35.75;;;;;16.14;86.87;101535.53;5081681;28;45397;-83
2023/04/19 01:08:22;;;;;;;;;36.50;33.00;;;;;16.10;87.29;101532.38;5081973;28;45320;-83
2023/04/19 01:10:47;;;;;;;;;37.00;34.25;;;;;16.19;87.17;101551.06;5081889;28;45454;-84
2023/04/19 01:13:13;;;;;;;;;40.75;35.25;;;;;15.92;86.62;101500.63;5081420;28;46194;-83
2023/04/19 01:15:38;;;;;;;;;37.00;33.00;;;;;16.06;86.98;101543.69;5080539;28;45386;-83
2023/04/19 01:18:03;;;;;;;;;40.00;35.25;;;;;15.93;87.13;101514.88;5062737;28;45597;-83
2023/04/19 01:20:29;;;;;;;;;40.33;35.00;;;;;15.95;87.49;101532.41;5080455;28;45562;-83
2023/04/19 01:22:54;;;;;;;;;35.75;33.75;;;;;16.01;87.35;101549.63;5081612;28;46405;-83
2023/04/19 01:25:20;;;;;;;;;31.00;29.33;;;;;16.38;86.52;101547.69;5081921;28;45303;-83
2023/04/19 01:27:45;;;;;;;;;35.50;32.00;;;;;16.18;85.82;101549.38;5081775;28;45208;-84
2023/04/19 01:30:11;;;;;;;;;32.75;32.00;;;;;16.00;87.00;101550.66;5081462;28;45349;-84
2023/04/19 01:32:36;;;;;;;;;43.50;35.25;;;;;15.94;86.87;101536.13;5081214;27;45220;-83
2023/04/19 01:35:01;;;;;;;;;39.25;34.25;;;;;15.86;86.53;101528.22;5081590;27;45350;-83
2023/04/19 01:37:27;;;;;;;;;32.75;31.00;;;;;15.77;87.54;101531.00;5081610;28;45307;-83
2023/04/19 01:39:52;;;;;;;;;35.00;33.00;;;;;15.50;87.99;101489.69;5085735;28;45433;-83
2023/04/19 01:42:18;;;;;;;;;38.00;34.00;;;;;15.65;87.98;101529.84;5085821;27;45180;-83
2023/04/19 01:44:43;;;;;;;;;40.75;33.75;;;;;15.69;88.07;101539.19;5082485;28;45273;-83
2023/04/19 01:47:08;;;;;;;;;37.50;35.00;;;;;15.63;88.17;101529.22;5079379;28;45547;-83
2023/04/19 01:49:34;;;;;;;;;37.33;34.00;;;;;15.55;88.69;101523.94;5081065;28;45234;-83
2023/04/19 01:51:59;;;;;;;;;33.67;30.00;;;;;15.44;88.84;101504.66;5080796;27;45485;-84
2023/04/19 01:54:25;;;;;;;;;31.33;30.00;;;;;15.63;89.12;101531.88;5081103;28;45320;-83
2023/04/19 01:56:51;;;;;;;;;25.33;25.00;;;;;15.40;89.30;101492.69;5081248;28;45334;-83
2023/04/19 01:59:16;;;;;;;;;25.33;24.67;;;;;15.54;88.58;101520.47;5062753;28;45957;-83
2023/04/19 02:01:41;;;;;;;;;27.00;26.00;;;;;15.45;88.81;101508.19;5062437;28;47490;-83
2023/04/19 02:04:08;;;;;;;;;32.33;26.33;;;;;15.56;88.99;101526.44;5061520;28;45662;-82
2023/04/19 02:06:33;;;;;;;;;24.00;22.67;;;;;15.57;88.68;101525.44;5062473;28;45477;-83
2023/04/19 02:08:58;;;;;;;;;22.33;22.00;;;;;15.93;86.03;101501.47;5080866;28;45362;-83
2023/04/19 02:11:24;;;;;;;;;26.33;25.00;;;;;15.62;88.12;101522.16;5080725;28;45313;-83
2023/04/19 02:13:49;;;;;;;;;27.33;24.00;;;;;15.62;89.01;101520.34;5062773;28;45780;-83
2023/04/19 02:16:14;;;;;;;;;23.33;22.67;;;;;15.49;89.34;101514.81;5062631;28;45226;-83
2023/04/19 02:18:40;;;;;;;;;26.00;24.00;;;;;15.50;89.09;101517.31;5080606;28;45523;-83
2023/04/19 02:21:07;;;;;;;;;25.00;23.00;;;;;15.54;88.94;101528.50;5062309;28;45557;-84
2023/04/19 02:23:32;;;;;;;;;27.00;24.67;;;;;15.50;89.19;101522.66;5080746;28;45287;-83
2023/04/19 02:25:58;;;;;;;;;24.00;23.67;;;;;15.45;89.14;101514.38;5080771;28;45227;-83
2023/04/19 02:28:23;;;;;;;;;24.33;22.00;;;;;15.51;88.87;101524.31;5080528;28;45265;-83
2023/04/19 02:30:48;;;;;;;;;26.00;24.33;;;;;15.36;89.35;101504.78;5080554;27;45281;-83
2023/04/19 02:33:14;;;;;;;;;23.67;23.33;;;;;15.49;89.15;101522.84;5080459;27;45322;-83
2023/04/19 02:35:40;;;;;;;;;26.33;24.67;;;;;15.47;88.98;101516.88;5080797;27;45370;-83
2023/04/19 02:38:08;;;;;;;;;27.00;25.33;;;;;15.53;89.49;101524.13;5080323;27;45496;-83
2023/04/19 02:40:33;;;;;;;;;29.00;28.00;;;;;15.85;89.13;101532.75;5080465;27;45348;-83
2023/04/19 02:42:58;;;;;;;;;24.33;24.33;;;;;15.50;89.68;101511.13;5079508;28;45391;-83
2023/04/19 02:45:24;;;;;;;;;25.67;25.67;;;;;15.46;88.83;101507.16;5082998;27;45334;-83
2023/04/19 02:47:49;;;;;;;;;29.67;27.00;;;;;15.47;89.71;101519.56;5084560;28;45251;-83
2023/04/19 02:50:15;;;;;;;;;24.67;24.00;;;;;16.02;88.63;101533.34;5084319;28;46110;-82
2023/04/19 02:52:41;;;;;;;;;24.67;23.67;;;;;15.61;88.67;101524.03;5081540;28;45353;-83
2023/04/19 02:55:07;;;;;;;;;26.00;23.00;;;;;15.49;89.79;101517.50;5080420;28;45231;-83
2023/04/19 02:57:32;;;;;;;;;24.33;22.33;;;;;15.55;89.58;101532.81;5079942;28;45311;-83
2023/04/19 02:59:57;;;;;;;;;26.67;26.00;;;;;15.61;89.47;101525.88;5061993;28;46358;-83
2023/04/19 03:02:26;;;;;;;;;25.33;24.67;;;;;15.63;89.78;101537.25;5080054;28;45256;-83
2023/04/19 03:04:54;;;;;;;;;25.67;22.67;;;;;15.49;89.85;101510.31;5080328;28;45322;-83
2023/04/19 03:07:19;;;;;;;;;26.67;23.67;;;;;15.60;89.96;101530.44;5080073;28;45668;-83
2023/04/19 03:09:45;;;;;;;;;24.67;24.67;;;;;15.46;89.68;101515.19;5061655;28;47486;-83
2023/04/19 03:12:10;;;;;;;;;25.67;23.33;;;;;15.58;89.58;101523.56;5079979;28;45254;-83
2023/04/19 03:14:36;;;;;;;;;23.00;22.00;;;;;15.60;88.72;101510.84;5080208;28;45330;-83
2023/04/19 03:17:02;;;;;;;;;29.00;26.00;;;;;15.56;88.98;101515.72;5061307;28;45269;-83
2023/04/19 03:19:30;;;;;;;;;25.00;24.00;;;;;15.58;89.61;101528.94;5061587;28;47394;-83
2023/04/19 03:21:55;;;;;;;;;24.00;23.00;;;;;15.61;89.26;101524.03;5061308;28;45265;-83
2023/04/19 03:24:29;;;;;;;;;25.00;25.00;;;;;15.63;89.28;101532.69;5079910;28;45372;-83
2023/04/19 03:26:54;;;;;;;;;23.67;21.67;;;;;15.65;88.71;101519.97;5061631;28;46091;-83
2023/04/19 03:29:20;;;;;;;;;25.00;22.00;;;;;15.65;89.02;101525.31;5066673;28;46715;-83
2023/04/19 03:31:46;;;;;;;;;25.00;25.00;;;;;15.65;89.45;101535.19;5079458;27;45413;-83
2023/04/19 03:34:12;;;;;;;;;28.33;26.00;;;;;15.60;89.36;101530.44;5079883;28;45335;-83
2023/04/19 03:36:38;;;;;;;;;36.33;30.67;;;;;15.45;89.46;101510.88;5077903;28;45823;-82
2023/04/19 03:39:03;;;;;;;;;26.33;26.00;;;;;15.58;89.26;101537.81;5079631;28;46510;-82
2023/04/19 03:41:29;;;;;;;;;30.00;25.33;;;;;15.56;89.50;101533.66;5079502;28;45299;-82
2023/04/19 03:43:54;;;;;;;;;26.33;26.33;;;;;15.61;89.06;101534.75;5079739;28;45247;-82
2023/04/19 03:46:20;;;;;;;;;28.33;25.00;;;;;16.17;86.38;101526.28;5079605;28;45222;-83
2023/04/19 03:48:45;;;;;;;;;19.67;19.67;;;;;15.99;86.43;101496.22;5079318;27;45287;-82
2023/04/19 03:51:12;;;;;;;;;27.00;26.67;;;;;16.10;86.04;101520.84;5080183;28;45215;-82
2023/04/19 03:53:37;;;;;;;;;30.00;28.67;;;;;16.12;84.72;101506.22;5083434;28;45475;-82
2023/04/19 03:56:03;;;;;;;;;26.00;24.33;;;;;16.15;84.92;101518.41;5083366;28;45552;-82
2023/04/19 03:58:28;;;;;;;;;26.00;24.00;;;;;16.27;84.50;101529.44;5080862;28;48462;-82
2023/04/19 04:00:54;;;;;;;;;22.67;22.00;;;;;16.32;84.57;101532.41;5077940;28;45364;-82
2023/04/19 04:03:19;;;;;;;;;25.00;25.00;;;;;16.26;84.37;101530.47;5078940;28;45296;-83
2023/04/19 04:05:44;;;;;;;;;25.67;24.00;;;;;15.78;85.61;101524.63;5078942;28;45410;-82
2023/04/19 04:08:10;;;;;;;;;28.00;26.00;;;;;16.18;84.92;101528.75;5079352;27;45714;-82
2023/04/19 04:10:35;;;;;;;;;27.67;27.00;;;;;16.20;84.36;101532.09;5081332;28;45349;-82
2023/04/19 04:13:00;;;;;;;;;25.00;22.00;;;;;16.14;84.48;101528.31;5082942;27;45326;-82
2023/04/19 04:15:26;;;;;;;;;27.67;23.67;;;;;16.09;84.58;101511.13;5082745;28;45378;-82
2023/04/19 04:17:51;;;;;;;;;24.67;23.67;;;;;16.08;84.17;101514.84;5082502;28;45361;-82
2023/04/19 04:20:16;;;;;;;;;26.33;25.00;;;;;16.12;83.48;101529.53;5082780;27;45292;-82
2023/04/19 04:22:44;;;;;;;;;26.67;25.00;;;;;16.05;83.83;101501.81;5082880;27;45513;-82
2023/04/19 04:25:11;;;;;;;;;29.67;28.00;;;;;16.07;84.01;101518.56;5082629;27;45464;-82
2023/04/19 04:27:36;;;;;;;;;35.33;31.00;;;;;16.07;83.90;101523.91;5082634;27;46172;-82
2023/04/19 04:30:02;;;;;;;;;37.67;33.33;;;;;16.15;83.02;101519.25;5082312;27;45324;-82
2023/04/19 04:32:28;;;;;;;;;33.67;30.67;;;;;16.06;83.63;101522.25;5082391;27;45217;-82
2023/04/19 04:34:54;;;;;;;;;33.67;30.67;;;;;15.94;83.93;101505.81;5082442;27;45510;-82
2023/04/19 04:37:19;;;;;;;;;34.00;32.00;;;;;16.00;84.25;101527.38;5080668;28;46343;-82
2023/04/19 04:39:45;;;;;;;;;29.33;28.67;;;;;16.01;84.01;101534.38;5082448;27;45389;-82
2023/04/19 04:42:11;;;;;;;;;26.00;26.00;;;;;15.86;84.08;101515.63;5082475;27;45279;-82
2023/04/19 04:44:37;;;;;;;;;33.00;31.00;;;;;15.70;84.83;101519.41;5082482;28;45495;-83
2023/04/19 04:47:03;;;;;;;;;29.00;26.67;;;;;15.92;84.69;101532.00;5081869;27;45371;-83
2023/04/19 04:49:29;;;;;;;;;25.33;24.33;;;;;15.96;84.52;101527.91;5080811;28;45336;-82
2023/04/19 04:51:55;;;;;;;;;29.00;26.33;;;;;16.00;84.10;101527.38;5082200;27;45363;-81
2023/04/19 04:54:20;;;;;;;;;28.33;28.00;;;;;16.03;84.10;101534.19;5082158;27;45382;-80
2023/04/19 04:56:46;;;;;;;;;33.00;30.00;;;;;15.94;84.38;101514.69;5081141;27;46086;-80
2023/04/19 04:59:11;;;;;;;;;33.33;30.67;;;;;16.06;83.72;101544.53;5082754;28;45295;-80
2023/04/19 05:01:37;;;;;;;;;32.67;29.33;;;;;15.78;84.72;101521.13;5076096;27;45391;-82
2023/04/19 05:04:02;;;;;;;;;32.67;29.33;;;;;15.77;85.60;101530.16;5070958;28;45743;-82
2023/04/19 05:06:27;;;;;;;;;25.67;24.33;;;;;15.80;85.76;101540.50;5062192;28;45674;-82
2023/04/19 05:08:56;;;;;;;;;28.67;27.33;;;;;15.74;85.88;101531.38;5061612;28;45342;-81
2023/04/19 05:11:21;;;;;;;;;31.33;29.33;;;;;15.83;85.75;101536.66;5043263;28;45433;-83
2023/04/19 05:13:46;;;;;;;;;32.00;29.00;;;;;15.72;85.70;101514.69;5043119;28;46066;-83
2023/04/19 05:16:12;;;;;;;;;30.33;29.33;;;;;15.78;85.64;101529.97;5043381;28;45873;-79
2023/04/19 05:18:37;;;;;;;;;31.00;30.33;;;;;15.53;87.35;101524.97;5061127;28;45400;-80
2023/04/19 05:21:02;;;;;;;;;30.00;27.00;;;;;15.56;88.01;101547.06;5061337;28;45363;-79
2023/04/19 05:23:28;;;;;;;;;27.00;26.67;;;;;15.55;88.47;101553.41;5060973;28;45474;-81
2023/04/19 05:25:53;;;;;;;;;19.00;19.00;;;;;15.68;87.78;101550.91;5060751;28;45338;-79
2023/04/19 05:28:18;;;;;;;;;28.00;25.00;;;;;15.72;87.91;101552.19;5060991;28;45319;-79
2023/04/19 05:30:44;;;;;;;;;30.00;28.33;;;;;15.90;87.91;101553.63;5081526;27;45338;-80
2023/04/19 05:33:09;;;;;;;;;29.33;27.33;;;;;15.76;87.59;101539.25;5077182;28;45254;-80
2023/04/19 05:35:35;;;;;;;;;30.67;29.00;;;;;16.02;87.29;101536.03;5070250;28;45422;-80
2023/04/19 05:38:00;;;;;;;;;30.00;29.00;;;;;16.06;86.81;101541.00;5069439;28;45520;-80
2023/04/19 05:40:26;;;;;;;;;32.67;28.00;;;;;16.16;86.31;101541.50;5061056;28;45205;-80
2023/04/19 05:42:51;;;;;;;;;30.00;29.33;;;;;15.85;87.86;101548.81;5060871;28;45435;-79
2023/04/19 05:45:17;;;;;;;;;28.00;27.67;;;;;16.10;87.32;101555.72;5059585;28;47803;-80
2023/04/19 05:47:43;;;;;;;;;38.00;31.33;;;;;15.90;88.47;101559.78;5059156;28;45367;-80
2023/04/19 05:50:09;;;;;;;;;29.67;28.33;;;;;15.86;89.12;101563.88;5061071;28;45250;-80
2023/04/19 05:52:34;;;;;;;;;27.33;27.33;;;;;15.95;88.73;101566.47;5060739;28;45289;-79
2023/04/19 05:55:00;;;;;;;;;24.33;24.00;;;;;16.22;87.93;101562.19;5060697;28;46066;-80
2023/04/19 05:57:25;;;;;;;;;36.00;33.00;;;;;16.34;86.99;101565.19;5060775;28;45395;-80
2023/04/19 05:59:50;;;;;;;;;36.67;33.00;;;;;16.05;88.36;101564.31;5060914;28;45331;-80
2023/04/19 06:02:16;;;;;;;;;33.67;31.33;;;;;16.03;89.17;101559.16;5060506;28;45490;-80
2023/04/19 06:04:41;;;;;;;;;30.00;28.67;;;;;16.33;88.04;101554.66;5060570;28;46089;-80
2023/04/19 06:07:07;;;;;;;;;34.00;31.67;;;;;16.30;86.82;101529.06;5060674;28;45367;-79
2023/04/19 06:09:32;;;;;;;;;33.00;31.00;;;;;16.32;88.04;101569.09;5060909;28;45477;-78
2023/04/19 06:11:58;;;;;;;;;33.33;31.33;;;;;16.24;88.40;101576.25;5075392;28;45355;-79
2023/04/19 06:14:25;;;;;;;;;37.00;33.33;;;;;16.23;88.92;101563.03;5080641;28;46549;-80
2023/04/19 06:16:50;;;;;;;;;36.00;33.33;;;;;16.35;88.90;101576.78;5077446;28;45568;-78
2023/04/19 06:19:15;;;;;;;;;38.00;33.67;;;;;16.43;88.78;101579.31;5080739;28;45236;-78
2023/04/19 06:21:41;;;;;;;;;33.00;31.00;;;;;16.38;88.72;101560.28;5076430;28;45216;-77
2023/04/19 06:24:06;;;;;;;;;50.00;41.50;;;;;16.54;89.45;101577.97;5070025;28;46212;-79
2023/04/19 06:26:32;;;;;;;;;50.50;41.50;;;;;16.59;89.30;101583.59;5076009;28;45666;-81
2023/04/19 06:28:57;;;;;;;;;44.00;36.75;;;;;16.63;88.91;101579.50;5065367;28;45478;-79
2023/04/19 06:31:23;;;;;;;;;36.67;33.00;;;;;16.68;88.48;101588.81;5079067;28;45457;-79
2023/04/19 06:33:48;;;;;;;;;54.25;42.25;;;;;16.61;89.14;101575.34;5079961;28;45309;-80
2023/04/19 06:36:14;;;;;;;;;48.75;39.50;;;;;16.66;89.01;101578.25;5080498;27;45299;-82
2023/04/19 06:38:40;;;;;;;;;37.67;31.67;;;;;16.75;89.37;101590.53;5080495;28;45491;-80
2023/04/19 06:41:06;;;;;;;;;33.33;31.00;;;;;16.84;88.90;101591.19;5080694;27;45445;-77
2023/04/19 06:43:31;;;;;;;;;32.33;31.00;;;;;16.82;88.23;101579.81;5080213;27;45343;-76
2023/04/19 06:46:01;;;;;;;;;33.00;30.67;;;;;16.95;88.57;101592.53;5080394;28;45296;-77
2023/04/19 06:48:27;;;;;;;;;36.67;33.33;;;;;17.01;87.49;101585.53;5080385;27;45312;-77
2023/04/19 06:50:53;;;;;;;;;41.67;35.67;;;;;16.96;88.21;101566.47;5079988;28;45343;-76
2023/04/19 06:53:19;;;;;;;;;35.67;33.00;;;;;17.08;88.61;101585.59;5080045;27;45284;-80
2023/04/19 06:55:44;;;;;;;;;32.00;28.33;;;;;17.34;87.84;101593.00;5077383;28;45259;-79
2023/04/19 06:58:10;;;;;;;;;34.33;31.00;;;;;17.59;86.16;101597.84;5080565;28;45329;-77
2023/04/19 07:00:36;;;;;;;;;36.00;32.67;;;;;17.41;86.04;101568.81;5080174;28;45319;-77
2023/04/19 07:03:02;;;;;;;;;31.67;31.00;;;;;17.45;85.99;101580.81;5061402;28;45780;-80
2023/04/19 07:05:29;;;;;;;;;33.67;30.33;;;;;17.83;85.63;101592.97;5061659;28;45400;-79
2023/04/19 07:07:58;;;;;;;;;36.33;32.67;;;;;17.87;84.73;101586.16;5061692;28;45252;-80
2023/04/19 07:10:47;;;;;;;;;35.00;31.00;;;;;17.98;84.60;101583.91;5063255;28;45841;-78
2023/04/19 08:13:08;;;;;;;;;32.00;29.33;;;;;19.60;79.28;101599.97;4840642;29;45617;-78
2023/04/19 08:33:29;;;;;;;;;27.67;26.33;;;;;19.99;77.33;101588.38;4854122;29;45500;-77
2023/04/19 08:35:55;;;;;;;;;36.00;32.33;;;;;19.83;78.44;101543.84;4882159;29;47784;-77
2023/04/19 08:38:40;;;;;;;;;26.67;26.67;;;;;20.07;78.22;101571.94;4901936;28;45410;-77
2023/04/19 08:56:00;;;;;;;;;;;;;;;;;;;;;
2023/04/19 08:59:32;;;;;;;;;31.00;29.00;;;;;20.62;75.62;101585.88;4955878;28;74095;-79
2023/04/19 09:17:09;;;;;;;;;28.00;28.00;;;;;21.05;73.91;101593.16;4905244;28;45311;-78
2023/04/19 09:20:42;;;;;;;;;;;;;;;;;;;;;
2023/04/19 09:37:53;;;;;;;;;;;;;;;;;;;;;
2023/04/19 09:45:21;;;;;;;;;29.00;28.33;;;;;21.79;72.81;101575.22;4945575;28;45674;-80
2023/04/19 09:48:01;;;;;;;;;29.00;27.67;;;;;22.00;71.52;101586.56;4914046;28;45517;-78
2023/04/19 09:50:54;;;;;;;;;30.33;29.00;;;;;21.74;70.27;101529.09;4979820;28;45334;-79
2023/04/19 09:53:44;;;;;;;;;44.33;34.00;;;;;22.16;70.66;101587.81;5019973;28;45869;-79
2023/04/19 09:57:15;;;;;;;;;26.67;22.67;;;;;22.27;69.26;101566.41;5062680;28;46801;-80
2023/04/19 10:03:39;;;;;;;;;26.67;25.67;;;;;22.55;69.32;101573.03;4982370;28;45419;-79
2023/04/19 10:10:15;;;;;;;;;27.00;26.33;;;;;22.80;67.39;101556.56;5011220;28;45439;-80
2023/04/19 10:16:31;;;;;;;;;103.50;91.75;;;;;23.07;68.11;101537.06;4953651;28;45438;-79
2023/04/19 10:22:36;;;;;;;;;96.50;87.00;;;;;23.58;66.94;101549.19;4941860;28;45543;-80
2023/04/19 10:25:41;;;;;;;;;47.00;37.33;;;;;23.71;63.28;101554.31;4939667;28;45394;-79
2023/04/19 10:28:37;;;;;;;;;67.75;58.75;;;;;23.67;64.20;101519.75;4986233;28;45401;-78
2023/04/19 10:34:05;;;;;;;;;27.33;24.00;;;;;23.97;58.72;101543.06;4998948;28;45357;-79
2023/04/19 10:36:31;;;;;;;;;21.33;21.00;;;;;24.00;61.31;101545.31;5001977;28;45580;-77
2023/04/19 10:38:56;;;;;;;;;24.33;23.00;;;;;24.12;61.03;101539.00;5018678;28;45390;-81
2023/04/19 10:41:44;;;;;;;;;21.33;20.00;;;;;24.37;58.81;101538.59;5019192;28;45570;-80
2023/04/19 10:44:10;;;;;;;;;49.00;41.00;;;;;24.53;60.63;101528.78;5018918;28;45527;-80
2023/04/19 10:46:41;;;;;;;;;56.33;44.00;;;;;24.70;60.77;101530.63;5018043;28;45449;-80
2023/04/19 10:49:12;;;;;;;;;48.67;40.33;;;;;24.79;60.18;101531.00;5022684;28;45306;-80
2023/04/19 10:55:38;;;;;;;;;93.50;87.00;;;;;25.29;60.81;101531.09;5030737;28;46341;-79
2023/04/19 10:58:40;;;;;;;;;;;;;;;;;;;;;
2023/04/19 11:05:14;;;;;;;;;;;;;;;;;;;;;
2023/04/19 11:07:41;;;;;;;;;53.00;42.67;;;;;26.08;55.61;101498.94;5058966;28;75239;-79
2023/04/19 11:10:08;;;;;;;;;31.00;28.67;;;;;26.24;54.76;101533.63;5059917;28;45340;-80
2023/04/19 11:12:33;;;;;;;;;34.00;31.00;;;;;26.17;53.89;101536.56;5059409;28;45312;-79
2023/04/19 11:14:59;;;;;;;;;28.00;24.00;;;;;25.92;49.38;101514.31;5059283;28;45344;-79
2023/04/19 11:17:29;;;;;;;;;14.33;14.33;;;;;25.90;52.49;101518.38;5059329;28;45462;-81
2023/04/19 11:20:01;;;;;;;;;70.00;58.50;;;;;25.84;52.81;101499.28;5059898;28;45447;-81
2023/04/19 11:22:31;;;;;;;;;24.33;24.00;;;;;26.09;53.00;101510.63;5070768;27;45348;-79
2023/04/19 11:25:07;;;;;;;;;24.67;23.33;;;;;25.97;49.14;101489.03;5080251;28;45257;-81
2023/04/19 11:27:33;;;;;;;;;108.00;96.25;;;;;25.93;50.60;101502.34;5079393;28;45381;-82
2023/04/19 11:30:21;;;;;;;;;52.33;41.67;;;;;25.71;49.18;101491.56;5095894;27;45338;-83
2023/04/19 11:32:53;;;;;;;;;23.33;20.67;;;;;25.65;49.19;101496.09;5102075;27;45481;-81
2023/04/19 11:35:24;;;;;;;;;45.67;36.33;;;;;25.56;49.81;101498.44;5105329;27;45303;-79
2023/04/19 11:37:50;;;;;;;;;31.00;29.33;;;;;25.53;49.17;101492.72;5083414;27;45340;-79
2023/04/19 11:40:18;;;;;;;;;17.00;16.67;;;;;25.63;50.53;101492.84;5079938;28;45399;-79
2023/04/19 11:42:44;;;;;;;;;13.67;13.67;;;;;25.85;50.97;101491.91;5080150;27;45454;-78
2023/04/19 11:45:10;;;;;;;;;26.67;25.00;;;;;26.02;49.54;101474.63;5080847;28;45433;-79
2023/04/19 11:47:49;;;;;;;;;24.33;22.00;;;;;26.14;49.11;101461.66;5079489;27;45458;-79
2023/04/19 11:50:43;;;;;;;;;20.67;19.67;;;;;26.49;49.68;101475.78;5080845;28;45366;-80
2023/04/19 11:53:14;;;;;;;;;13.67;12.33;;;;;26.63;48.52;101475.28;5061495;28;45358;-80
2023/04/19 11:55:47;;;;;;;;;13.33;13.33;;;;;26.79;47.94;101473.44;5070467;28;45515;-79
2023/04/19 11:58:28;;;;;;;;;14.67;13.33;;;;;26.96;46.95;101465.84;5081738;28;46175;-80
2023/04/19 12:00:54;;;;;;;;;17.00;16.00;;;;;27.08;46.41;101452.00;5062461;28;45320;-79
2023/04/19 12:03:23;;;;;;;;;33.00;30.33;;;;;27.27;46.93;101459.69;5061767;28;45311;-80
2023/04/19 12:05:53;;;;;;;;;10.33;10.00;;;;;27.43;45.06;101465.16;5080188;28;45450;-81
2023/04/19 12:08:32;;;;;;;;;12.00;11.67;;;;;27.48;43.99;101460.50;5079974;28;45351;-81
2023/04/19 12:10:58;;;;;;;;;9.50;9.50;;;;;27.59;44.07;101458.59;5080438;28;45460;-80
2023/04/19 12:13:24;;;;;;;;;7.67;7.67;;;;;27.71;44.13;101449.34;5080952;28;45281;-81
2023/04/19 12:15:49;;;;;;;;;15.67;15.33;;;;;27.87;44.58;101454.81;5080740;28;45268;-81
2023/04/19 12:18:15;;;;;;;;;10.33;10.00;;;;;27.72;40.19;101440.09;5080152;28;46295;-83
2023/04/19 12:20:45;;;;;;;;;9.00;8.00;;;;;27.53;42.44;101413.28;5062506;28;45298;-78
2023/04/19 12:23:14;;;;;;;;;11.67;10.00;;;;;27.78;41.77;101427.25;5079537;28;45334;-78
2023/04/19 12:25:41;;;;;;;;;10.00;10.00;;;;;27.94;41.06;101444.41;5080096;28;45277;-79
2023/04/19 12:28:06;;;;;;;;;11.00;10.33;;;;;28.16;42.83;101437.81;5079264;28;45235;-79
2023/04/19 12:30:32;;;;;;;;;21.67;19.67;;;;;28.45;42.64;101434.47;5100475;27;45312;-79
2023/04/19 12:32:58;;;;;;;;;11.33;11.00;;;;;28.67;41.22;101430.56;5103194;27;45343;-80
2023/04/19 12:35:26;;;;;;;;;48.00;38.00;;;;;28.94;41.04;101434.81;5103821;27;45271;-79
2023/04/19 12:37:56;;;;;;;;;19.00;18.00;;;;;28.94;40.77;101430.16;5103529;27;45352;-80
2023/04/19 12:40:24;;;;;;;;;32.33;27.67;;;;;28.71;39.68;101437.09;5103504;27;45353;-79
2023/04/19 12:42:52;;;;;;;;;23.67;22.00;;;;;28.45;40.66;101440.75;5104238;27;45229;-80
2023/04/19 12:45:21;;;;;;;;;52.33;43.00;;;;;28.13;40.57;101422.00;5086366;27;45564;-80
2023/04/19 12:47:47;;;;;;;;;23.33;23.00;;;;;28.02;40.68;101432.94;5085135;27;48262;-80
2023/04/19 12:50:15;;;;;;;;;10.67;10.67;;;;;28.03;39.90;101434.56;5084846;27;45290;-80
2023/04/19 12:52:45;;;;;;;;;10.33;10.00;;;;;27.87;39.16;101430.22;5103875;27;45280;-80
2023/04/19 12:55:10;;;;;;;;;11.00;11.00;;;;;27.62;39.37;101419.03;5087089;27;45510;-80
2023/04/19 12:57:39;;;;;;;;;42.67;34.67;;;;;27.43;39.40;101414.13;5086368;27;46800;-79
2023/04/19 13:00:06;;;;;;;;;60.33;47.67;;;;;27.30;39.80;101426.41;5103269;27;45333;-81
2023/04/19 13:02:33;;;;;;;;;27.33;26.33;;;;;27.05;39.16;101403.44;5085663;27;45488;-80
2023/04/19 13:04:58;;;;;;;;;27.00;24.67;;;;;27.04;38.42;101431.00;5084170;27;46818;-80
2023/04/19 13:07:23;;;;;;;;;21.33;20.67;;;;;26.84;39.47;101405.28;5102458;27;45422;-80
2023/04/19 13:09:49;;;;;;;;;70.00;61.25;;;;;26.70;40.81;101399.53;5102569;27;45345;-80
2023/04/19 13:12:14;;;;;;;;;71.25;60.75;;;;;26.75;40.71;101418.63;5102655;27;45302;-80
2023/04/19 13:14:40;;;;;;;;;17.00;15.67;;;;;26.64;38.42;101393.25;5102903;27;45304;-79
2023/04/19 13:17:05;;;;;;;;;44.00;36.00;;;;;26.83;41.25;101400.94;5102048;27;45310;-80
2023/04/19 13:19:31;;;;;;;;;46.33;36.67;;;;;27.21;41.60;101408.94;5102787;27;45310;-79
2023/04/19 13:21:56;;;;;;;;;14.00;14.00;;;;;27.44;41.00;101406.75;5102519;27;45259;-80
2023/04/19 13:24:21;;;;;;;;;34.67;30.33;;;;;27.39;40.63;101404.03;5102745;27;45250;-80
2023/04/19 13:26:46;;;;;;;;;72.50;69.25;;;;;27.46;40.34;101397.22;5103101;27;45244;-80
2023/04/19 13:29:12;;;;;;;;;48.67;39.00;;;;;27.59;40.88;101392.28;5094753;27;45368;-80
2023/04/19 13:31:37;;;;;;;;;44.67;37.33;;;;;27.90;41.25;101397.75;5081517;28;45280;-80
2023/04/19 13:34:02;;;;;;;;;49.67;41.00;;;;;28.00;40.08;101388.69;5062985;28;46074;-79
2023/04/19 13:36:28;;;;;;;;;38.00;33.33;;;;;28.00;39.37;101385.13;5081989;28;45419;-80
2023/04/19 13:38:54;;;;;;;;;55.00;43.67;;;;;28.14;40.26;101393.56;5064989;28;45296;-81
2023/04/19 13:41:20;;;;;;;;;65.75;53.25;;;;;28.20;38.92;101384.25;5063221;28;45330;-80
2023/04/19 13:43:46;;;;;;;;;17.33;16.67;;;;;28.24;39.05;101385.34;5066847;28;45344;-80
2023/04/19 13:46:15;;;;;;;;;8.00;8.00;;;;;28.19;38.33;101377.16;5066001;28;45504;-78
2023/04/19 13:48:41;;;;;;;;;8.33;8.33;;;;;28.07;38.16;101377.47;5064263;28;45280;-81
2023/04/19 13:51:07;;;;;;;;;62.75;50.25;;;;;27.91;37.78;101390.34;5081682;28;45652;-82
2023/04/19 13:53:32;;;;;;;;;31.33;27.67;;;;;27.72;38.35;101383.56;5082348;28;45331;-79